sensor_id;sensor_type;location;lat;lon;timestamp;P1;durP1;ratioP1;P2;durP2;ratioP2
86575;SDS011;77216;53.732;9.462;2024-03-29T00:02:01;665.60;;;615.42;;
86575;SDS011;77216;53.732;9.462;2024-03-29T00:04:26;676.47;;;623.88;;
86575;SDS011;77216;53.732;9.462;2024-03-29T00:06:52;658.72;;;611.17;;
86575;SDS011;77216;53.732;9.462;2024-03-29T00:09:23;667.25;;;618.60;;
86575;SDS011;77216;53.732;9.462;2024-03-29T00:11:48;660.53;;;611.15;;
86575;SDS011;77216;53.732;9.462;2024-03-29T00:14:14;663.85;;;613.85;;
86575;SDS011;77216;53.732;9.462;2024-03-29T00:16:39;670.38;;;621.00;;
86575;SDS011;77216;53.732;9.462;2024-03-29T00:19:05;680.22;;;626.38;;
86575;SDS011;77216;53.732;9.462;2024-03-29T00:21:30;671.78;;;620.15;;
86575;SDS011;77216;53.732;9.462;2024-03-29T00:23:56;671.78;;;621.30;;
86575;SDS011;77216;53.732;9.462;2024-03-29T00:26:23;663.45;;;613.58;;
86575;SDS011;77216;53.732;9.462;2024-03-29T00:28:49;658.78;;;610.60;;
86575;SDS011;77216;53.732;9.462;2024-03-29T00:31:14;672.33;;;619.47;;
86575;SDS011;77216;53.732;9.462;2024-03-29T00:33:40;666.22;;;617.85;;
86575;SDS011;77216;53.732;9.462;2024-03-29T00:36:05;669.08;;;618.28;;
86575;SDS011;77216;53.732;9.462;2024-03-29T00:38:31;666.35;;;615.22;;
86575;SDS011;77216;53.732;9.462;2024-03-29T00:40:57;654.22;;;606.30;;
86575;SDS011;77216;53.732;9.462;2024-03-29T00:43:25;665.55;;;614.70;;
86575;SDS011;77216;53.732;9.462;2024-03-29T00:45:51;651.40;;;603.58;;
86575;SDS011;77216;53.732;9.462;2024-03-29T00:48:17;661.10;;;612.17;;
86575;SDS011;77216;53.732;9.462;2024-03-29T00:50:45;645.47;;;598.20;;
86575;SDS011;77216;53.732;9.462;2024-03-29T00:53:10;661.30;;;611.75;;
86575;SDS011;77216;53.732;9.462;2024-03-29T00:55:36;660.75;;;609.60;;
86575;SDS011;77216;53.732;9.462;2024-03-29T00:58:02;655.97;;;606.13;;
86575;SDS011;77216;53.732;9.462;2024-03-29T01:00:28;654.42;;;603.72;;
86575;SDS011;77216;53.732;9.462;2024-03-29T01:02:54;651.58;;;603.42;;
86575;SDS011;77216;53.732;9.462;2024-03-29T01:05:20;647.10;;;600.85;;
86575;SDS011;77216;53.732;9.462;2024-03-29T01:07:45;652.25;;;605.53;;
86575;SDS011;77216;53.732;9.462;2024-03-29T01:10:11;646.80;;;599.63;;
86575;SDS011;77216;53.732;9.462;2024-03-29T01:12:37;653.90;;;602.72;;
86575;SDS011;77216;53.732;9.462;2024-03-29T01:15:04;641.33;;;593.47;;
86575;SDS011;77216;53.732;9.462;2024-03-29T01:17:30;650.00;;;602.40;;
86575;SDS011;77216;53.732;9.462;2024-03-29T01:19:56;635.47;;;589.83;;
86575;SDS011;77216;53.732;9.462;2024-03-29T01:22:22;638.05;;;592.45;;
86575;SDS011;77216;53.732;9.462;2024-03-29T01:24:48;649.22;;;602.67;;
86575;SDS011;77216;53.732;9.462;2024-03-29T01:27:13;647.22;;;599.78;;
86575;SDS011;77216;53.732;9.462;2024-03-29T01:29:39;638.25;;;590.83;;
86575;SDS011;77216;53.732;9.462;2024-03-29T01:32:05;642.00;;;594.50;;
86575;SDS011;77216;53.732;9.462;2024-03-29T01:34:31;636.00;;;589.60;;
86575;SDS011;77216;53.732;9.462;2024-03-29T01:37:00;643.28;;;596.88;;
86575;SDS011;77216;53.732;9.462;2024-03-29T01:39:25;638.40;;;591.08;;
86575;SDS011;77216;53.732;9.462;2024-03-29T01:41:56;630.20;;;584.33;;
86575;SDS011;77216;53.732;9.462;2024-03-29T01:44:22;638.53;;;592.42;;
86575;SDS011;77216;53.732;9.462;2024-03-29T01:46:47;637.38;;;590.83;;
86575;SDS011;77216;53.732;9.462;2024-03-29T01:49:13;641.28;;;593.40;;
86575;SDS011;77216;53.732;9.462;2024-03-29T01:51:39;648.05;;;600.13;;
86575;SDS011;77216;53.732;9.462;2024-03-29T01:54:06;643.83;;;596.30;;
86575;SDS011;77216;53.732;9.462;2024-03-29T01:56:37;638.05;;;591.35;;
86575;SDS011;77216;53.732;9.462;2024-03-29T01:59:05;640.88;;;593.35;;
86575;SDS011;77216;53.732;9.462;2024-03-29T02:01:38;639.65;;;592.35;;
86575;SDS011;77216;53.732;9.462;2024-03-29T02:04:06;631.17;;;586.00;;
86575;SDS011;77216;53.732;9.462;2024-03-29T02:06:31;635.25;;;588.28;;
86575;SDS011;77216;53.732;9.462;2024-03-29T02:08:57;634.17;;;587.78;;
86575;SDS011;77216;53.732;9.462;2024-03-29T02:11:25;645.97;;;599.85;;
86575;SDS011;77216;53.732;9.462;2024-03-29T02:13:51;642.45;;;595.92;;
86575;SDS011;77216;53.732;9.462;2024-03-29T02:16:17;634.13;;;588.53;;
86575;SDS011;77216;53.732;9.462;2024-03-29T02:18:43;637.75;;;591.55;;
86575;SDS011;77216;53.732;9.462;2024-03-29T02:21:09;647.90;;;599.42;;
86575;SDS011;77216;53.732;9.462;2024-03-29T02:23:36;638.78;;;591.80;;
86575;SDS011;77216;53.732;9.462;2024-03-29T02:26:05;637.80;;;590.97;;
86575;SDS011;77216;53.732;9.462;2024-03-29T02:28:31;635.28;;;588.58;;
86575;SDS011;77216;53.732;9.462;2024-03-29T02:30:56;637.13;;;591.63;;
86575;SDS011;77216;53.732;9.462;2024-03-29T02:33:22;645.10;;;597.78;;
86575;SDS011;77216;53.732;9.462;2024-03-29T02:35:48;642.97;;;597.22;;
86575;SDS011;77216;53.732;9.462;2024-03-29T02:38:14;646.45;;;598.15;;
86575;SDS011;77216;53.732;9.462;2024-03-29T02:40:40;638.70;;;592.55;;
86575;SDS011;77216;53.732;9.462;2024-03-29T02:43:05;646.17;;;596.20;;
86575;SDS011;77216;53.732;9.462;2024-03-29T02:45:31;654.08;;;602.65;;
86575;SDS011;77216;53.732;9.462;2024-03-29T02:47:56;636.42;;;590.97;;
86575;SDS011;77216;53.732;9.462;2024-03-29T02:50:22;640.67;;;593.28;;
86575;SDS011;77216;53.732;9.462;2024-03-29T02:52:47;645.60;;;597.92;;
86575;SDS011;77216;53.732;9.462;2024-03-29T02:55:13;636.90;;;590.67;;
86575;SDS011;77216;53.732;9.462;2024-03-29T02:57:38;641.33;;;593.38;;
86575;SDS011;77216;53.732;9.462;2024-03-29T03:00:06;651.90;;;602.03;;
86575;SDS011;77216;53.732;9.462;2024-03-29T03:02:32;641.17;;;591.97;;
86575;SDS011;77216;53.732;9.462;2024-03-29T03:05:01;641.40;;;594.80;;
86575;SDS011;77216;53.732;9.462;2024-03-29T03:07:27;635.22;;;589.38;;
86575;SDS011;77216;53.732;9.462;2024-03-29T03:10:12;640.72;;;594.60;;
86575;SDS011;77216;53.732;9.462;2024-03-29T03:12:56;646.83;;;597.20;;
86575;SDS011;77216;53.732;9.462;2024-03-29T03:15:22;636.42;;;590.50;;
86575;SDS011;77216;53.732;9.462;2024-03-29T03:17:47;629.28;;;585.00;;
86575;SDS011;77216;53.732;9.462;2024-03-29T03:20:12;639.22;;;593.28;;
86575;SDS011;77216;53.732;9.462;2024-03-29T03:22:39;646.92;;;599.20;;
86575;SDS011;77216;53.732;9.462;2024-03-29T03:25:07;645.58;;;596.80;;
86575;SDS011;77216;53.732;9.462;2024-03-29T03:27:33;640.50;;;592.92;;
86575;SDS011;77216;53.732;9.462;2024-03-29T03:29:58;635.88;;;591.10;;
86575;SDS011;77216;53.732;9.462;2024-03-29T03:32:24;643.25;;;594.53;;
86575;SDS011;77216;53.732;9.462;2024-03-29T03:34:50;632.47;;;587.67;;
86575;SDS011;77216;53.732;9.462;2024-03-29T03:37:15;636.70;;;590.15;;
86575;SDS011;77216;53.732;9.462;2024-03-29T03:39:41;640.88;;;593.75;;
86575;SDS011;77216;53.732;9.462;2024-03-29T03:42:07;642.35;;;595.63;;
86575;SDS011;77216;53.732;9.462;2024-03-29T03:44:33;646.58;;;598.38;;
86575;SDS011;77216;53.732;9.462;2024-03-29T03:46:58;636.67;;;590.20;;
86575;SDS011;77216;53.732;9.462;2024-03-29T03:49:24;646.97;;;598.78;;
86575;SDS011;77216;53.732;9.462;2024-03-29T03:51:50;633.58;;;589.20;;
86575;SDS011;77216;53.732;9.462;2024-03-29T03:54:16;636.20;;;590.65;;
86575;SDS011;77216;53.732;9.462;2024-03-29T03:56:41;642.10;;;594.10;;
86575;SDS011;77216;53.732;9.462;2024-03-29T03:59:08;644.50;;;595.95;;
86575;SDS011;77216;53.732;9.462;2024-03-29T04:01:34;642.63;;;594.50;;
86575;SDS011;77216;53.732;9.462;2024-03-29T04:03:59;637.10;;;592.30;;
86575;SDS011;77216;53.732;9.462;2024-03-29T04:06:25;639.83;;;592.72;;
86575;SDS011;77216;53.732;9.462;2024-03-29T04:08:51;632.63;;;588.03;;
86575;SDS011;77216;53.732;9.462;2024-03-29T04:11:16;635.72;;;589.90;;
86575;SDS011;77216;53.732;9.462;2024-03-29T04:13:45;638.38;;;591.83;;
86575;SDS011;77216;53.732;9.462;2024-03-29T04:16:11;643.25;;;595.88;;
86575;SDS011;77216;53.732;9.462;2024-03-29T04:18:37;647.15;;;597.85;;
86575;SDS011;77216;53.732;9.462;2024-03-29T04:21:04;655.03;;;605.08;;
86575;SDS011;77216;53.732;9.462;2024-03-29T04:23:30;650.35;;;603.53;;
86575;SDS011;77216;53.732;9.462;2024-03-29T04:25:56;652.97;;;603.35;;
86575;SDS011;77216;53.732;9.462;2024-03-29T04:28:23;654.42;;;606.33;;
86575;SDS011;77216;53.732;9.462;2024-03-29T04:33:18;661.42;;;611.80;;
86575;SDS011;77216;53.732;9.462;2024-03-29T04:38:22;658.70;;;610.53;;
86575;SDS011;77216;53.732;9.462;2024-03-29T04:40:50;653.45;;;605.20;;
86575;SDS011;77216;53.732;9.462;2024-03-29T04:43:17;651.80;;;604.80;;
86575;SDS011;77216;53.732;9.462;2024-03-29T04:45:46;661.70;;;611.85;;
86575;SDS011;77216;53.732;9.462;2024-03-29T04:48:12;656.88;;;607.75;;
86575;SDS011;77216;53.732;9.462;2024-03-29T04:50:38;663.17;;;612.28;;
86575;SDS011;77216;53.732;9.462;2024-03-29T04:53:03;657.67;;;607.78;;
86575;SDS011;77216;53.732;9.462;2024-03-29T04:55:30;658.80;;;609.25;;
86575;SDS011;77216;53.732;9.462;2024-03-29T04:57:56;667.17;;;617.90;;
86575;SDS011;77216;53.732;9.462;2024-03-29T05:00:22;676.22;;;620.72;;
86575;SDS011;77216;53.732;9.462;2024-03-29T05:02:47;663.95;;;613.33;;
86575;SDS011;77216;53.732;9.462;2024-03-29T05:05:13;656.75;;;608.00;;
86575;SDS011;77216;53.732;9.462;2024-03-29T05:07:39;663.15;;;614.33;;
86575;SDS011;77216;53.732;9.462;2024-03-29T05:10:04;666.15;;;616.40;;
86575;SDS011;77216;53.732;9.462;2024-03-29T05:12:35;666.97;;;615.88;;
86575;SDS011;77216;53.732;9.462;2024-03-29T05:15:00;669.10;;;618.05;;
86575;SDS011;77216;53.732;9.462;2024-03-29T05:17:26;660.65;;;612.03;;
86575;SDS011;77216;53.732;9.462;2024-03-29T05:19:52;663.08;;;613.67;;
86575;SDS011;77216;53.732;9.462;2024-03-29T05:22:18;655.65;;;609.45;;
86575;SDS011;77216;53.732;9.462;2024-03-29T05:24:44;654.53;;;607.63;;
86575;SDS011;77216;53.732;9.462;2024-03-29T05:27:11;665.80;;;614.90;;
86575;SDS011;77216;53.732;9.462;2024-03-29T05:29:37;661.55;;;612.15;;
86575;SDS011;77216;53.732;9.462;2024-03-29T05:32:03;661.88;;;612.10;;
86575;SDS011;77216;53.732;9.462;2024-03-29T05:34:30;661.40;;;612.72;;
86575;SDS011;77216;53.732;9.462;2024-03-29T05:36:55;662.67;;;614.70;;
86575;SDS011;77216;53.732;9.462;2024-03-29T05:39:21;663.05;;;614.47;;
86575;SDS011;77216;53.732;9.462;2024-03-29T05:41:47;669.85;;;620.85;;
86575;SDS011;77216;53.732;9.462;2024-03-29T05:44:12;664.08;;;615.03;;
86575;SDS011;77216;53.732;9.462;2024-03-29T05:46:40;667.38;;;617.42;;
86575;SDS011;77216;53.732;9.462;2024-03-29T05:49:05;673.30;;;621.97;;
86575;SDS011;77216;53.732;9.462;2024-03-29T05:51:31;663.35;;;614.22;;
86575;SDS011;77216;53.732;9.462;2024-03-29T05:54:00;660.38;;;612.20;;
86575;SDS011;77216;53.732;9.462;2024-03-29T05:56:29;672.15;;;622.40;;
86575;SDS011;77216;53.732;9.462;2024-03-29T05:58:54;664.75;;;615.45;;
86575;SDS011;77216;53.732;9.462;2024-03-29T06:01:20;659.88;;;612.22;;
86575;SDS011;77216;53.732;9.462;2024-03-29T06:03:45;662.63;;;613.38;;
86575;SDS011;77216;53.732;9.462;2024-03-29T06:06:10;661.60;;;613.05;;
86575;SDS011;77216;53.732;9.462;2024-03-29T06:11:08;666.15;;;616.92;;
86575;SDS011;77216;53.732;9.462;2024-03-29T06:13:34;661.78;;;613.17;;
86575;SDS011;77216;53.732;9.462;2024-03-29T06:16:32;666.00;;;616.72;;
86575;SDS011;77216;53.732;9.462;2024-03-29T06:19:16;660.05;;;612.33;;
86575;SDS011;77216;53.732;9.462;2024-03-29T06:21:42;669.47;;;620.28;;
86575;SDS011;77216;53.732;9.462;2024-03-29T06:24:09;667.25;;;617.63;;
86575;SDS011;77216;53.732;9.462;2024-03-29T06:26:39;665.30;;;617.43;;
86575;SDS011;77216;53.732;9.462;2024-03-29T06:29:05;673.85;;;623.25;;
86575;SDS011;77216;53.732;9.462;2024-03-29T06:31:34;668.25;;;618.25;;
86575;SDS011;77216;53.732;9.462;2024-03-29T06:34:01;675.25;;;625.08;;
86575;SDS011;77216;53.732;9.462;2024-03-29T06:36:26;671.42;;;621.15;;
86575;SDS011;77216;53.732;9.462;2024-03-29T06:38:53;670.85;;;620.92;;
86575;SDS011;77216;53.732;9.462;2024-03-29T06:41:19;667.85;;;619.53;;
86575;SDS011;77216;53.732;9.462;2024-03-29T06:43:45;672.90;;;621.28;;
86575;SDS011;77216;53.732;9.462;2024-03-29T06:46:11;673.70;;;623.75;;
86575;SDS011;77216;53.732;9.462;2024-03-29T06:48:37;670.10;;;620.38;;
86575;SDS011;77216;53.732;9.462;2024-03-29T06:51:03;672.08;;;621.97;;
86575;SDS011;77216;53.732;9.462;2024-03-29T06:53:29;670.53;;;620.60;;
86575;SDS011;77216;53.732;9.462;2024-03-29T06:55:55;676.78;;;626.22;;
86575;SDS011;77216;53.732;9.462;2024-03-29T06:58:22;673.58;;;624.90;;
86575;SDS011;77216;53.732;9.462;2024-03-29T07:00:48;677.70;;;626.33;;
86575;SDS011;77216;53.732;9.462;2024-03-29T07:03:15;672.08;;;621.72;;
86575;SDS011;77216;53.732;9.462;2024-03-29T07:05:42;673.33;;;623.80;;
86575;SDS011;77216;53.732;9.462;2024-03-29T07:08:07;679.22;;;627.60;;
86575;SDS011;77216;53.732;9.462;2024-03-29T07:10:33;676.88;;;625.92;;
86575;SDS011;77216;53.732;9.462;2024-03-29T07:12:58;681.58;;;628.05;;
86575;SDS011;77216;53.732;9.462;2024-03-29T07:15:27;669.50;;;619.65;;
86575;SDS011;77216;53.732;9.462;2024-03-29T07:17:53;675.72;;;625.15;;
86575;SDS011;77216;53.732;9.462;2024-03-29T07:20:18;669.47;;;620.00;;
86575;SDS011;77216;53.732;9.462;2024-03-29T07:22:44;685.83;;;632.05;;
86575;SDS011;77216;53.732;9.462;2024-03-29T07:25:11;679.75;;;627.88;;
86575;SDS011;77216;53.732;9.462;2024-03-29T07:27:36;677.58;;;626.17;;
86575;SDS011;77216;53.732;9.462;2024-03-29T07:30:02;682.95;;;631.10;;
86575;SDS011;77216;53.732;9.462;2024-03-29T07:32:29;670.35;;;620.78;;
86575;SDS011;77216;53.732;9.462;2024-03-29T07:34:55;679.88;;;629.40;;
86575;SDS011;77216;53.732;9.462;2024-03-29T07:37:23;680.15;;;628.03;;
86575;SDS011;77216;53.732;9.462;2024-03-29T07:39:49;678.92;;;627.55;;
86575;SDS011;77216;53.732;9.462;2024-03-29T07:42:15;675.72;;;624.50;;
86575;SDS011;77216;53.732;9.462;2024-03-29T07:44:42;669.78;;;620.90;;
86575;SDS011;77216;53.732;9.462;2024-03-29T07:47:07;679.83;;;628.50;;
86575;SDS011;77216;53.732;9.462;2024-03-29T07:49:33;679.75;;;628.30;;
86575;SDS011;77216;53.732;9.462;2024-03-29T07:52:00;674.97;;;623.72;;
86575;SDS011;77216;53.732;9.462;2024-03-29T07:54:30;667.50;;;617.80;;
86575;SDS011;77216;53.732;9.462;2024-03-29T07:56:56;674.60;;;623.58;;
86575;SDS011;77216;53.732;9.462;2024-03-29T07:59:21;675.45;;;626.00;;
86575;SDS011;77216;53.732;9.462;2024-03-29T08:01:47;664.58;;;615.90;;
86575;SDS011;77216;53.732;9.462;2024-03-29T08:04:13;685.03;;;633.65;;
86575;SDS011;77216;53.732;9.462;2024-03-29T08:06:39;671.72;;;621.35;;
86575;SDS011;77216;53.732;9.462;2024-03-29T08:09:05;677.30;;;625.50;;
86575;SDS011;77216;53.732;9.462;2024-03-29T08:11:31;674.95;;;623.65;;
86575;SDS011;77216;53.732;9.462;2024-03-29T08:13:57;677.60;;;626.33;;
86575;SDS011;77216;53.732;9.462;2024-03-29T08:16:23;673.33;;;622.75;;
86575;SDS011;77216;53.732;9.462;2024-03-29T08:18:49;671.72;;;622.80;;
86575;SDS011;77216;53.732;9.462;2024-03-29T08:21:15;678.20;;;627.97;;
86575;SDS011;77216;53.732;9.462;2024-03-29T08:23:41;677.78;;;628.03;;
86575;SDS011;77216;53.732;9.462;2024-03-29T08:26:10;673.10;;;622.75;;
86575;SDS011;77216;53.732;9.462;2024-03-29T08:28:36;677.40;;;626.70;;
86575;SDS011;77216;53.732;9.462;2024-03-29T08:31:04;674.08;;;623.70;;
86575;SDS011;77216;53.732;9.462;2024-03-29T08:36:02;678.63;;;626.97;;
86575;SDS011;77216;53.732;9.462;2024-03-29T08:38:29;671.28;;;621.60;;
86575;SDS011;77216;53.732;9.462;2024-03-29T08:40:54;667.22;;;617.58;;
86575;SDS011;77216;53.732;9.462;2024-03-29T08:43:20;668.58;;;619.65;;
86575;SDS011;77216;53.732;9.462;2024-03-29T08:45:46;678.92;;;625.92;;
86575;SDS011;77216;53.732;9.462;2024-03-29T08:48:15;674.92;;;624.30;;
86575;SDS011;77216;53.732;9.462;2024-03-29T08:50:44;669.28;;;620.33;;
86575;SDS011;77216;53.732;9.462;2024-03-29T08:53:09;670.20;;;620.15;;
86575;SDS011;77216;53.732;9.462;2024-03-29T08:55:35;675.85;;;625.25;;
86575;SDS011;77216;53.732;9.462;2024-03-29T08:58:05;685.00;;;630.47;;
86575;SDS011;77216;53.732;9.462;2024-03-29T09:00:31;679.35;;;627.08;;
86575;SDS011;77216;53.732;9.462;2024-03-29T09:02:57;680.10;;;627.88;;
86575;SDS011;77216;53.732;9.462;2024-03-29T09:05:24;669.65;;;619.97;;
86575;SDS011;77216;53.732;9.462;2024-03-29T09:07:52;677.40;;;627.05;;
86575;SDS011;77216;53.732;9.462;2024-03-29T09:10:17;674.40;;;624.55;;
86575;SDS011;77216;53.732;9.462;2024-03-29T09:12:43;679.38;;;626.95;;
86575;SDS011;77216;53.732;9.462;2024-03-29T09:15:10;677.35;;;625.88;;
86575;SDS011;77216;53.732;9.462;2024-03-29T09:20:07;675.50;;;624.22;;
86575;SDS011;77216;53.732;9.462;2024-03-29T09:22:33;668.28;;;618.38;;
86575;SDS011;77216;53.732;9.462;2024-03-29T09:25:00;681.58;;;629.15;;
86575;SDS011;77216;53.732;9.462;2024-03-29T09:27:26;686.15;;;632.65;;
86575;SDS011;77216;53.732;9.462;2024-03-29T09:29:52;674.53;;;624.70;;
86575;SDS011;77216;53.732;9.462;2024-03-29T09:32:19;675.90;;;625.88;;
86575;SDS011;77216;53.732;9.462;2024-03-29T09:34:47;672.15;;;622.55;;
86575;SDS011;77216;53.732;9.462;2024-03-29T09:37:13;682.03;;;630.30;;
86575;SDS011;77216;53.732;9.462;2024-03-29T09:39:39;674.55;;;623.63;;
86575;SDS011;77216;53.732;9.462;2024-03-29T09:42:05;681.15;;;628.65;;
86575;SDS011;77216;53.732;9.462;2024-03-29T09:44:32;676.65;;;626.03;;
86575;SDS011;77216;53.732;9.462;2024-03-29T09:47:04;679.83;;;627.28;;
86575;SDS011;77216;53.732;9.462;2024-03-29T09:49:31;671.50;;;620.97;;
86575;SDS011;77216;53.732;9.462;2024-03-29T09:52:01;679.53;;;626.85;;
86575;SDS011;77216;53.732;9.462;2024-03-29T09:54:31;673.10;;;621.90;;
86575;SDS011;77216;53.732;9.462;2024-03-29T09:56:57;680.53;;;629.10;;
86575;SDS011;77216;53.732;9.462;2024-03-29T09:59:25;678.10;;;626.08;;
86575;SDS011;77216;53.732;9.462;2024-03-29T10:01:55;677.00;;;626.38;;
86575;SDS011;77216;53.732;9.462;2024-03-29T10:04:21;680.20;;;627.80;;
86575;SDS011;77216;53.732;9.462;2024-03-29T10:06:59;676.60;;;624.47;;
86575;SDS011;77216;53.732;9.462;2024-03-29T10:09:26;674.47;;;623.22;;
86575;SDS011;77216;53.732;9.462;2024-03-29T10:11:54;669.90;;;620.13;;
86575;SDS011;77216;53.732;9.462;2024-03-29T10:14:20;674.42;;;623.97;;
86575;SDS011;77216;53.732;9.462;2024-03-29T10:16:47;679.45;;;629.00;;
86575;SDS011;77216;53.732;9.462;2024-03-29T10:19:15;670.47;;;619.83;;
86575;SDS011;77216;53.732;9.462;2024-03-29T10:21:42;673.97;;;624.50;;
86575;SDS011;77216;53.732;9.462;2024-03-29T10:24:13;682.08;;;628.50;;
86575;SDS011;77216;53.732;9.462;2024-03-29T10:26:43;666.97;;;617.20;;
86575;SDS011;77216;53.732;9.462;2024-03-29T10:29:09;685.25;;;629.90;;
86575;SDS011;77216;53.732;9.462;2024-03-29T10:31:35;674.25;;;623.95;;
86575;SDS011;77216;53.732;9.462;2024-03-29T10:34:04;682.97;;;630.58;;
86575;SDS011;77216;53.732;9.462;2024-03-29T10:36:31;680.42;;;629.50;;
86575;SDS011;77216;53.732;9.462;2024-03-29T10:39:08;682.70;;;629.15;;
86575;SDS011;77216;53.732;9.462;2024-03-29T10:41:41;675.47;;;624.38;;
86575;SDS011;77216;53.732;9.462;2024-03-29T10:44:09;676.30;;;624.05;;
86575;SDS011;77216;53.732;9.462;2024-03-29T10:46:40;673.97;;;623.95;;
86575;SDS011;77216;53.732;9.462;2024-03-29T10:49:10;682.92;;;629.75;;
86575;SDS011;77216;53.732;9.462;2024-03-29T10:51:39;678.58;;;628.03;;
86575;SDS011;77216;53.732;9.462;2024-03-29T10:54:07;681.30;;;627.53;;
86575;SDS011;77216;53.732;9.462;2024-03-29T10:56:35;676.92;;;625.72;;
86575;SDS011;77216;53.732;9.462;2024-03-29T10:59:03;682.10;;;628.85;;
86575;SDS011;77216;53.732;9.462;2024-03-29T11:01:33;681.75;;;630.10;;
86575;SDS011;77216;53.732;9.462;2024-03-29T11:04:07;680.63;;;628.05;;
86575;SDS011;77216;53.732;9.462;2024-03-29T11:06:39;679.35;;;629.88;;
86575;SDS011;77216;53.732;9.462;2024-03-29T11:09:06;689.60;;;634.65;;
86575;SDS011;77216;53.732;9.462;2024-03-29T11:11:38;680.40;;;628.25;;
86575;SDS011;77216;53.732;9.462;2024-03-29T11:14:08;686.03;;;632.50;;
86575;SDS011;77216;53.732;9.462;2024-03-29T11:16:39;676.67;;;626.25;;
86575;SDS011;77216;53.732;9.462;2024-03-29T11:19:12;688.50;;;633.35;;
86575;SDS011;77216;53.732;9.462;2024-03-29T11:21:39;678.10;;;627.83;;
86575;SDS011;77216;53.732;9.462;2024-03-29T11:24:07;690.42;;;635.58;;
86575;SDS011;77216;53.732;9.462;2024-03-29T11:26:34;680.50;;;629.03;;
86575;SDS011;77216;53.732;9.462;2024-03-29T11:29:00;688.55;;;634.65;;
86575;SDS011;77216;53.732;9.462;2024-03-29T11:31:27;677.13;;;626.30;;
86575;SDS011;77216;53.732;9.462;2024-03-29T11:33:52;681.50;;;630.80;;
86575;SDS011;77216;53.732;9.462;2024-03-29T11:36:19;677.25;;;626.20;;
86575;SDS011;77216;53.732;9.462;2024-03-29T11:38:53;674.47;;;625.28;;
86575;SDS011;77216;53.732;9.462;2024-03-29T11:41:23;676.00;;;626.17;;
86575;SDS011;77216;53.732;9.462;2024-03-29T11:43:52;677.00;;;626.53;;
86575;SDS011;77216;53.732;9.462;2024-03-29T11:46:21;696.55;;;642.38;;
86575;SDS011;77216;53.732;9.462;2024-03-29T11:48:48;681.55;;;630.38;;
86575;SDS011;77216;53.732;9.462;2024-03-29T11:51:21;678.15;;;627.50;;
86575;SDS011;77216;53.732;9.462;2024-03-29T11:53:49;675.88;;;625.53;;
86575;SDS011;77216;53.732;9.462;2024-03-29T11:56:19;680.83;;;629.28;;
86575;SDS011;77216;53.732;9.462;2024-03-29T11:58:45;677.40;;;626.78;;
86575;SDS011;77216;53.732;9.462;2024-03-29T12:01:16;681.27;;;629.40;;
86575;SDS011;77216;53.732;9.462;2024-03-29T12:03:42;682.22;;;630.58;;
86575;SDS011;77216;53.732;9.462;2024-03-29T12:06:09;683.78;;;631.28;;
86575;SDS011;77216;53.732;9.462;2024-03-29T12:08:38;681.72;;;629.25;;
86575;SDS011;77216;53.732;9.462;2024-03-29T12:11:05;692.60;;;637.22;;
86575;SDS011;77216;53.732;9.462;2024-03-29T12:13:32;682.65;;;630.92;;
86575;SDS011;77216;53.732;9.462;2024-03-29T12:15:59;676.20;;;625.00;;
86575;SDS011;77216;53.732;9.462;2024-03-29T12:18:25;688.35;;;635.28;;
86575;SDS011;77216;53.732;9.462;2024-03-29T12:20:53;680.20;;;628.83;;
86575;SDS011;77216;53.732;9.462;2024-03-29T12:23:20;685.17;;;632.65;;
86575;SDS011;77216;53.732;9.462;2024-03-29T12:25:46;693.65;;;638.55;;
86575;SDS011;77216;53.732;9.462;2024-03-29T12:28:14;694.42;;;638.20;;
86575;SDS011;77216;53.732;9.462;2024-03-29T12:30:41;690.83;;;638.08;;
86575;SDS011;77216;53.732;9.462;2024-03-29T12:33:11;693.15;;;637.58;;
86575;SDS011;77216;53.732;9.462;2024-03-29T12:35:41;683.78;;;631.17;;
86575;SDS011;77216;53.732;9.462;2024-03-29T12:38:13;694.30;;;640.05;;
86575;SDS011;77216;53.732;9.462;2024-03-29T12:40:40;684.40;;;631.97;;
86575;SDS011;77216;53.732;9.462;2024-03-29T12:43:09;700.38;;;643.40;;
86575;SDS011;77216;53.732;9.462;2024-03-29T12:45:37;690.83;;;636.67;;
86575;SDS011;77216;53.732;9.462;2024-03-29T12:48:11;696.65;;;641.30;;
86575;SDS011;77216;53.732;9.462;2024-03-29T12:50:39;686.47;;;633.55;;
86575;SDS011;77216;53.732;9.462;2024-03-29T12:53:07;696.40;;;640.47;;
86575;SDS011;77216;53.732;9.462;2024-03-29T12:55:34;691.72;;;638.10;;
86575;SDS011;77216;53.732;9.462;2024-03-29T12:58:01;693.70;;;638.22;;
86575;SDS011;77216;53.732;9.462;2024-03-29T13:00:30;694.50;;;639.45;;
86575;SDS011;77216;53.732;9.462;2024-03-29T13:02:57;699.95;;;644.15;;
86575;SDS011;77216;53.732;9.462;2024-03-29T13:05:22;688.63;;;635.63;;
86575;SDS011;77216;53.732;9.462;2024-03-29T13:07:48;687.92;;;635.00;;
86575;SDS011;77216;53.732;9.462;2024-03-29T13:10:14;691.38;;;637.00;;
86575;SDS011;77216;53.732;9.462;2024-03-29T13:12:45;694.25;;;638.88;;
86575;SDS011;77216;53.732;9.462;2024-03-29T13:15:18;688.70;;;635.33;;
86575;SDS011;77216;53.732;9.462;2024-03-29T13:17:45;690.30;;;637.22;;
86575;SDS011;77216;53.732;9.462;2024-03-29T13:20:14;684.35;;;630.50;;
86575;SDS011;77216;53.732;9.462;2024-03-29T13:22:43;691.72;;;637.15;;
86575;SDS011;77216;53.732;9.462;2024-03-29T13:25:11;696.53;;;640.10;;
86575;SDS011;77216;53.732;9.462;2024-03-29T13:27:55;694.20;;;638.45;;
86575;SDS011;77216;53.732;9.462;2024-03-29T13:30:22;690.83;;;636.10;;
86575;SDS011;77216;53.732;9.462;2024-03-29T13:32:48;693.05;;;638.90;;
86575;SDS011;77216;53.732;9.462;2024-03-29T13:35:15;697.28;;;642.33;;
86575;SDS011;77216;53.732;9.462;2024-03-29T13:37:42;689.03;;;636.03;;
86575;SDS011;77216;53.732;9.462;2024-03-29T13:40:11;699.05;;;643.45;;
86575;SDS011;77216;53.732;9.462;2024-03-29T13:42:38;694.00;;;639.13;;
86575;SDS011;77216;53.732;9.462;2024-03-29T13:45:05;698.78;;;644.00;;
86575;SDS011;77216;53.732;9.462;2024-03-29T13:47:35;686.75;;;633.30;;
86575;SDS011;77216;53.732;9.462;2024-03-29T13:50:02;695.65;;;640.17;;
86575;SDS011;77216;53.732;9.462;2024-03-29T13:52:29;693.95;;;639.88;;
86575;SDS011;77216;53.732;9.462;2024-03-29T13:54:55;688.78;;;636.03;;
86575;SDS011;77216;53.732;9.462;2024-03-29T13:57:21;698.10;;;644.20;;
86575;SDS011;77216;53.732;9.462;2024-03-29T13:59:47;695.15;;;640.65;;
86575;SDS011;77216;53.732;9.462;2024-03-29T14:02:13;702.17;;;645.17;;
86575;SDS011;77216;53.732;9.462;2024-03-29T14:04:41;689.00;;;636.10;;
86575;SDS011;77216;53.732;9.462;2024-03-29T14:07:08;696.47;;;641.67;;
86575;SDS011;77216;53.732;9.462;2024-03-29T14:09:38;687.22;;;634.63;;